sensor_id;sensor_type;location;lat;lon;timestamp;temperature;humidity
81136;DHT22;70622;50.886;3.890;2024-01-10T00:01:09;-2.90;79.50
81136;DHT22;70622;50.886;3.890;2024-01-10T00:03:34;-2.90;79.70
81136;DHT22;70622;50.886;3.890;2024-01-10T00:06:00;-2.90;79.70
81136;DHT22;70622;50.886;3.890;2024-01-10T00:08:28;-2.90;79.90
81136;DHT22;70622;50.886;3.890;2024-01-10T00:10:54;-2.90;79.90
81136;DHT22;70622;50.886;3.890;2024-01-10T00:13:20;-3.00;80.40
81136;DHT22;70622;50.886;3.890;2024-01-10T00:15:47;-3.00;80.70
81136;DHT22;70622;50.886;3.890;2024-01-10T00:18:13;-2.90;80.80
81136;DHT22;70622;50.886;3.890;2024-01-10T00:20:38;-3.00;80.80
81136;DHT22;70622;50.886;3.890;2024-01-10T00:23:04;-3.10;80.90
81136;DHT22;70622;50.886;3.890;2024-01-10T00:25:31;-3.00;81.10
81136;DHT22;70622;50.886;3.890;2024-01-10T00:28:00;-3.00;80.80
81136;DHT22;70622;50.886;3.890;2024-01-10T00:30:25;-2.90;80.40
81136;DHT22;70622;50.886;3.890;2024-01-10T00:32:51;-2.90;80.20
81136;DHT22;70622;50.886;3.890;2024-01-10T00:35:16;-3.00;80.50
81136;DHT22;70622;50.886;3.890;2024-01-10T00:37:42;-3.00;81.10
81136;DHT22;70622;50.886;3.890;2024-01-10T00:40:11;-3.00;80.90
81136;DHT22;70622;50.886;3.890;2024-01-10T00:42:36;-3.10;80.80
81136;DHT22;70622;50.886;3.890;2024-01-10T00:45:02;-3.00;80.70
81136;DHT22;70622;50.886;3.890;2024-01-10T00:47:28;-3.10;81.00
81136;DHT22;70622;50.886;3.890;2024-01-10T00:49:53;-3.10;81.20
81136;DHT22;70622;50.886;3.890;2024-01-10T00:52:22;-3.10;81.20
81136;DHT22;70622;50.886;3.890;2024-01-10T00:55:07;-3.00;81.50
81136;DHT22;70622;50.886;3.890;2024-01-10T00:57:33;-3.10;81.60
81136;DHT22;70622;50.886;3.890;2024-01-10T00:59:58;-3.00;81.50
81136;DHT22;70622;50.886;3.890;2024-01-10T01:02:24;-3.00;81.60
81136;DHT22;70622;50.886;3.890;2024-01-10T01:04:49;-3.10;83.00
81136;DHT22;70622;50.886;3.890;2024-01-10T01:07:18;-3.10;82.40
81136;DHT22;70622;50.886;3.890;2024-01-10T01:09:44;-3.20;82.60
81136;DHT22;70622;50.886;3.890;2024-01-10T01:12:09;-3.20;83.00
81136;DHT22;70622;50.886;3.890;2024-01-10T01:14:35;-3.30;83.50
81136;DHT22;70622;50.886;3.890;2024-01-10T01:17:00;-3.30;83.20
81136;DHT22;70622;50.886;3.890;2024-01-10T01:19:26;-3.30;83.40
81136;DHT22;70622;50.886;3.890;2024-01-10T01:21:51;-3.30;83.30
81136;DHT22;70622;50.886;3.890;2024-01-10T01:24:17;-3.30;83.10
81136;DHT22;70622;50.886;3.890;2024-01-10T01:26:43;-3.30;83.20
81136;DHT22;70622;50.886;3.890;2024-01-10T01:29:09;-3.30;83.10
81136;DHT22;70622;50.886;3.890;2024-01-10T01:31:34;-3.40;83.10
81136;DHT22;70622;50.886;3.890;2024-01-10T01:34:00;-3.30;82.80
81136;DHT22;70622;50.886;3.890;2024-01-10T01:36:25;-3.30;82.90
81136;DHT22;70622;50.886;3.890;2024-01-10T01:38:51;-3.40;83.40
81136;DHT22;70622;50.886;3.890;2024-01-10T01:41:16;-3.50;83.80
81136;DHT22;70622;50.886;3.890;2024-01-10T01:43:46;-3.40;83.90
81136;DHT22;70622;50.886;3.890;2024-01-10T01:46:12;-3.40;83.80
81136;DHT22;70622;50.886;3.890;2024-01-10T01:48:38;-3.40;83.70
81136;DHT22;70622;50.886;3.890;2024-01-10T01:51:04;-3.30;83.60
81136;DHT22;70622;50.886;3.890;2024-01-10T01:53:31;-3.30;83.20
81136;DHT22;70622;50.886;3.890;2024-01-10T01:56:00;-3.40;83.10
81136;DHT22;70622;50.886;3.890;2024-01-10T01:58:28;-3.40;83.20
81136;DHT22;70622;50.886;3.890;2024-01-10T02:00:54;-3.40;83.00
81136;DHT22;70622;50.886;3.890;2024-01-10T02:03:20;-3.40;83.00
81136;DHT22;70622;50.886;3.890;2024-01-10T02:05:46;-3.40;83.30
81136;DHT22;70622;50.886;3.890;2024-01-10T02:08:12;-3.30;83.10
81136;DHT22;70622;50.886;3.890;2024-01-10T02:10:37;-3.30;82.80
81136;DHT22;70622;50.886;3.890;2024-01-10T02:13:03;-3.40;83.00
81136;DHT22;70622;50.886;3.890;2024-01-10T02:15:28;-3.40;83.30
81136;DHT22;70622;50.886;3.890;2024-01-10T02:17:54;-3.40;82.80
81136;DHT22;70622;50.886;3.890;2024-01-10T02:20:20;-3.40;83.00
81136;DHT22;70622;50.886;3.890;2024-01-10T02:22:48;-3.40;82.90
81136;DHT22;70622;50.886;3.890;2024-01-10T02:25:15;-3.40;82.70
81136;DHT22;70622;50.886;3.890;2024-01-10T02:27:41;-3.40;83.50
81136;DHT22;70622;50.886;3.890;2024-01-10T02:30:07;-3.50;82.90
81136;DHT22;70622;50.886;3.890;2024-01-10T02:32:33;-3.50;83.00
81136;DHT22;70622;50.886;3.890;2024-01-10T02:34:58;-3.60;83.30
81136;DHT22;70622;50.886;3.890;2024-01-10T02:37:24;-3.50;83.30
81136;DHT22;70622;50.886;3.890;2024-01-10T02:39:50;-3.50;83.20
81136;DHT22;70622;50.886;3.890;2024-01-10T02:42:15;-3.60;83.20
81136;DHT22;70622;50.886;3.890;2024-01-10T02:44:41;-3.60;83.90
81136;DHT22;70622;50.886;3.890;2024-01-10T02:47:07;-3.60;84.40
81136;DHT22;70622;50.886;3.890;2024-01-10T02:49:33;-3.60;85.00
81136;DHT22;70622;50.886;3.890;2024-01-10T02:51:58;-3.60;85.20
81136;DHT22;70622;50.886;3.890;2024-01-10T02:54:24;-3.60;85.60
81136;DHT22;70622;50.886;3.890;2024-01-10T02:56:50;-3.60;85.50
81136;DHT22;70622;50.886;3.890;2024-01-10T02:59:16;-3.60;85.10
81136;DHT22;70622;50.886;3.890;2024-01-10T03:01:45;-3.60;85.40
81136;DHT22;70622;50.886;3.890;2024-01-10T03:04:10;-3.60;85.80
81136;DHT22;70622;50.886;3.890;2024-01-10T03:06:36;-3.70;85.90
81136;DHT22;70622;50.886;3.890;2024-01-10T03:09:02;-3.60;85.90
81136;DHT22;70622;50.886;3.890;2024-01-10T03:11:27;-3.60;86.00
81136;DHT22;70622;50.886;3.890;2024-01-10T03:14:03;-3.60;86.20
81136;DHT22;70622;50.886;3.890;2024-01-10T03:16:32;-3.70;86.60
81136;DHT22;70622;50.886;3.890;2024-01-10T03:18:57;-3.70;86.60
81136;DHT22;70622;50.886;3.890;2024-01-10T03:21:23;-3.70;86.60
81136;DHT22;70622;50.886;3.890;2024-01-10T03:23:50;-3.70;86.60
81136;DHT22;70622;50.886;3.890;2024-01-10T03:26:16;-3.70;86.80
81136;DHT22;70622;50.886;3.890;2024-01-10T03:28:41;-3.70;86.80
81136;DHT22;70622;50.886;3.890;2024-01-10T03:31:07;-3.80;87.00
81136;DHT22;70622;50.886;3.890;2024-01-10T03:33:32;-3.70;87.10
81136;DHT22;70622;50.886;3.890;2024-01-10T03:35:58;-3.70;87.30
81136;DHT22;70622;50.886;3.890;2024-01-10T03:38:23;-3.70;87.10
81136;DHT22;70622;50.886;3.890;2024-01-10T03:40:49;-3.70;86.90
81136;DHT22;70622;50.886;3.890;2024-01-10T03:43:14;-3.70;86.60
81136;DHT22;70622;50.886;3.890;2024-01-10T03:45:42;-3.80;86.70
81136;DHT22;70622;50.886;3.890;2024-01-10T03:48:07;-3.70;86.80
81136;DHT22;70622;50.886;3.890;2024-01-10T03:50:33;-3.70;86.40
81136;DHT22;70622;50.886;3.890;2024-01-10T03:52:58;-3.80;86.40
81136;DHT22;70622;50.886;3.890;2024-01-10T03:55:24;-3.80;86.70
81136;DHT22;70622;50.886;3.890;2024-01-10T03:57:49;-3.90;87.10
81136;DHT22;70622;50.886;3.890;2024-01-10T04:00:15;-4.00;87.30
81136;DHT22;70622;50.886;3.890;2024-01-10T04:02:41;-4.00;87.80
81136;DHT22;70622;50.886;3.890;2024-01-10T04:05:10;-4.00;87.80
81136;DHT22;70622;50.886;3.890;2024-01-10T04:07:39;-4.00;87.50
81136;DHT22;70622;50.886;3.890;2024-01-10T04:10:05;-3.90;87.40
81136;DHT22;70622;50.886;3.890;2024-01-10T04:12:33;-4.00;87.70
81136;DHT22;70622;50.886;3.890;2024-01-10T04:14:58;-4.00;87.30
81136;DHT22;70622;50.886;3.890;2024-01-10T04:17:24;-4.00;87.20
81136;DHT22;70622;50.886;3.890;2024-01-10T04:19:52;-3.90;87.00
81136;DHT22;70622;50.886;3.890;2024-01-10T04:22:18;-3.80;86.30
81136;DHT22;70622;50.886;3.890;2024-01-10T04:24:44;-3.80;86.40
81136;DHT22;70622;50.886;3.890;2024-01-10T04:27:09;-3.90;86.50
81136;DHT22;70622;50.886;3.890;2024-01-10T04:29:35;-3.80;86.70
81136;DHT22;70622;50.886;3.890;2024-01-10T04:32:00;-3.80;86.70
81136;DHT22;70622;50.886;3.890;2024-01-10T04:34:26;-3.90;86.50
81136;DHT22;70622;50.886;3.890;2024-01-10T04:36:51;-3.90;86.50
81136;DHT22;70622;50.886;3.890;2024-01-10T04:39:17;-3.90;86.70
81136;DHT22;70622;50.886;3.890;2024-01-10T04:41:43;-3.90;86.90
81136;DHT22;70622;50.886;3.890;2024-01-10T04:44:09;-3.90;86.60
81136;DHT22;70622;50.886;3.890;2024-01-10T04:46:44;-3.80;86.60
81136;DHT22;70622;50.886;3.890;2024-01-10T04:49:10;-3.80;86.00
81136;DHT22;70622;50.886;3.890;2024-01-10T04:51:35;-3.80;85.60
81136;DHT22;70622;50.886;3.890;2024-01-10T04:54:01;-3.80;85.80
81136;DHT22;70622;50.886;3.890;2024-01-10T04:56:26;-3.80;85.40
81136;DHT22;70622;50.886;3.890;2024-01-10T04:58:52;-3.70;85.20
81136;DHT22;70622;50.886;3.890;2024-01-10T05:01:17;-3.70;84.90
81136;DHT22;70622;50.886;3.890;2024-01-10T05:03:43;-3.70;85.10
81136;DHT22;70622;50.886;3.890;2024-01-10T05:06:09;-3.70;85.30
81136;DHT22;70622;50.886;3.890;2024-01-10T05:08:34;-3.80;85.60
81136;DHT22;70622;50.886;3.890;2024-01-10T05:11:00;-3.70;85.80
81136;DHT22;70622;50.886;3.890;2024-01-10T05:13:29;-3.80;85.50
81136;DHT22;70622;50.886;3.890;2024-01-10T05:15:54;-3.70;85.40
81136;DHT22;70622;50.886;3.890;2024-01-10T05:18:20;-3.70;85.40
81136;DHT22;70622;50.886;3.890;2024-01-10T05:20:46;-3.90;86.00
81136;DHT22;70622;50.886;3.890;2024-01-10T05:23:11;-3.80;86.20
81136;DHT22;70622;50.886;3.890;2024-01-10T05:36:06;-3.90;86.20
81136;DHT22;70622;50.886;3.890;2024-01-10T05:57:20;-3.90;86.40
81136;DHT22;70622;50.886;3.890;2024-01-10T06:10:05;-4.00;86.60
81136;DHT22;70622;50.886;3.890;2024-01-10T06:13:15;-4.10;86.70
81136;DHT22;70622;50.886;3.890;2024-01-10T06:33:57;-4.10;87.00
81136;DHT22;70622;50.886;3.890;2024-01-10T07:02:50;-3.80;86.50
81136;DHT22;70622;50.886;3.890;2024-01-10T07:05:59;-3.90;86.60
81136;DHT22;70622;50.886;3.890;2024-01-10T07:09:16;-3.90;86.70
81136;DHT22;70622;50.886;3.890;2024-01-10T07:11:50;-3.80;86.50
81136;DHT22;70622;50.886;3.890;2024-01-10T07:27:15;-4.00;87.40
81136;DHT22;70622;50.886;3.890;2024-01-10T07:29:50;-4.00;87.70
81136;DHT22;70622;50.886;3.890;2024-01-10T07:32:50;-4.00;88.80
81136;DHT22;70622;50.886;3.890;2024-01-10T07:35:16;-4.10;89.00
81136;DHT22;70622;50.886;3.890;2024-01-10T07:37:42;-4.10;88.80
81136;DHT22;70622;50.886;3.890;2024-01-10T07:40:08;-4.20;88.80
81136;DHT22;70622;50.886;3.890;2024-01-10T07:42:34;-4.20;89.70
81136;DHT22;70622;50.886;3.890;2024-01-10T07:45:00;-4.20;89.40
81136;DHT22;70622;50.886;3.890;2024-01-10T07:47:29;-4.00;88.30
81136;DHT22;70622;50.886;3.890;2024-01-10T07:49:55;-4.10;88.30
81136;DHT22;70622;50.886;3.890;2024-01-10T07:52:20;-4.00;88.20
81136;DHT22;70622;50.886;3.890;2024-01-10T07:54:46;-3.90;88.40
81136;DHT22;70622;50.886;3.890;2024-01-10T07:57:13;-3.80;87.80
81136;DHT22;70622;50.886;3.890;2024-01-10T07:59:38;-3.90;87.90
81136;DHT22;70622;50.886;3.890;2024-01-10T08:02:04;-3.90;88.10
81136;DHT22;70622;50.886;3.890;2024-01-10T08:04:29;-3.90;88.40
81136;DHT22;70622;50.886;3.890;2024-01-10T08:06:55;-3.90;88.70
81136;DHT22;70622;50.886;3.890;2024-01-10T08:09:21;-3.90;88.10
81136;DHT22;70622;50.886;3.890;2024-01-10T08:11:47;-3.90;88.10
81136;DHT22;70622;50.886;3.890;2024-01-10T08:14:13;-3.80;87.70
81136;DHT22;70622;50.886;3.890;2024-01-10T08:16:39;-3.70;87.50
81136;DHT22;70622;50.886;3.890;2024-01-10T08:19:04;-3.60;86.90
81136;DHT22;70622;50.886;3.890;2024-01-10T08:21:30;-3.60;86.00
81136;DHT22;70622;50.886;3.890;2024-01-10T08:23:59;-3.60;86.30
81136;DHT22;70622;50.886;3.890;2024-01-10T08:26:26;-3.60;86.50
81136;DHT22;70622;50.886;3.890;2024-01-10T08:28:52;-3.60;86.50
81136;DHT22;70622;50.886;3.890;2024-01-10T08:31:17;-3.50;86.40
81136;DHT22;70622;50.886;3.890;2024-01-10T08:33:43;-3.50;86.00
81136;DHT22;70622;50.886;3.890;2024-01-10T08:36:09;-3.50;86.00
81136;DHT22;70622;50.886;3.890;2024-01-10T08:38:38;-3.60;85.50
81136;DHT22;70622;50.886;3.890;2024-01-10T08:41:03;-3.60;86.80
81136;DHT22;70622;50.886;3.890;2024-01-10T08:43:29;-3.70;86.50
81136;DHT22;70622;50.886;3.890;2024-01-10T08:45:56;-3.50;85.60
81136;DHT22;70622;50.886;3.890;2024-01-10T08:48:23;-3.50;85.40
81136;DHT22;70622;50.886;3.890;2024-01-10T08:50:48;-3.50;85.30
81136;DHT22;70622;50.886;3.890;2024-01-10T08:53:14;-3.30;85.40
81136;DHT22;70622;50.886;3.890;2024-01-10T08:55:41;-3.30;84.90
81136;DHT22;70622;50.886;3.890;2024-01-10T08:58:07;-3.20;85.10
81136;DHT22;70622;50.886;3.890;2024-01-10T09:00:35;-3.20;84.10
81136;DHT22;70622;50.886;3.890;2024-01-10T09:03:00;-3.20;83.70
81136;DHT22;70622;50.886;3.890;2024-01-10T09:05:26;-3.20;83.60
81136;DHT22;70622;50.886;3.890;2024-01-10T09:07:52;-3.10;83.30
81136;DHT22;70622;50.886;3.890;2024-01-10T09:10:19;-3.00;82.70
81136;DHT22;70622;50.886;3.890;2024-01-10T09:12:46;-2.90;81.60
81136;DHT22;70622;50.886;3.890;2024-01-10T09:15:12;-3.00;81.80
81136;DHT22;70622;50.886;3.890;2024-01-10T09:17:40;-2.90;82.60
81136;DHT22;70622;50.886;3.890;2024-01-10T09:20:06;-3.10;82.90
81136;DHT22;70622;50.886;3.890;2024-01-10T09:22:32;-3.10;82.30
81136;DHT22;70622;50.886;3.890;2024-01-10T09:24:57;-3.00;82.80
81136;DHT22;70622;50.886;3.890;2024-01-10T09:27:29;-2.90;82.60
81136;DHT22;70622;50.886;3.890;2024-01-10T09:29:55;-2.80;83.00
81136;DHT22;70622;50.886;3.890;2024-01-10T09:32:20;-2.70;81.70
81136;DHT22;70622;50.886;3.890;2024-01-10T09:34:46;-2.70;81.60
81136;DHT22;70622;50.886;3.890;2024-01-10T09:37:11;-2.80;81.80
81136;DHT22;70622;50.886;3.890;2024-01-10T09:39:37;-2.70;82.40
81136;DHT22;70622;50.886;3.890;2024-01-10T09:42:02;-2.60;81.00
81136;DHT22;70622;50.886;3.890;2024-01-10T09:44:29;-2.50;80.80
81136;DHT22;70622;50.886;3.890;2024-01-10T09:46:54;-2.60;80.80
81136;DHT22;70622;50.886;3.890;2024-01-10T09:49:20;-2.50;81.00
81136;DHT22;70622;50.886;3.890;2024-01-10T09:51:50;-2.50;79.70
81136;DHT22;70622;50.886;3.890;2024-01-10T09:54:18;-2.30;80.00
81136;DHT22;70622;50.886;3.890;2024-01-10T09:56:45;-2.20;79.40
81136;DHT22;70622;50.886;3.890;2024-01-10T09:59:10;-2.20;78.40
81136;DHT22;70622;50.886;3.890;2024-01-10T10:01:37;-2.20;78.40
81136;DHT22;70622;50.886;3.890;2024-01-10T10:04:04;-2.20;78.80
81136;DHT22;70622;50.886;3.890;2024-01-10T10:06:31;-2.10;78.20
81136;DHT22;70622;50.886;3.890;2024-01-10T10:09:00;-2.20;78.00
81136;DHT22;70622;50.886;3.890;2024-01-10T10:11:26;-2.20;79.00
81136;DHT22;70622;50.886;3.890;2024-01-10T10:13:52;-2.10;78.80
81136;DHT22;70622;50.886;3.890;2024-01-10T10:16:24;-2.20;78.80
81136;DHT22;70622;50.886;3.890;2024-01-10T10:18:53;-2.10;78.60
81136;DHT22;70622;50.886;3.890;2024-01-10T10:21:24;-2.00;78.30
81136;DHT22;70622;50.886;3.890;2024-01-10T10:23:57;-1.90;77.70
81136;DHT22;70622;50.886;3.890;2024-01-10T10:26:22;-1.80;76.80
81136;DHT22;70622;50.886;3.890;2024-01-10T10:28:49;-1.80;77.20
81136;DHT22;70622;50.886;3.890;2024-01-10T10:31:15;-1.80;76.80
81136;DHT22;70622;50.886;3.890;2024-01-10T10:33:42;-1.80;77.50
81136;DHT22;70622;50.886;3.890;2024-01-10T10:36:08;-1.60;76.30
81136;DHT22;70622;50.886;3.890;2024-01-10T10:38:35;-1.60;76.00
81136;DHT22;70622;50.886;3.890;2024-01-10T10:41:04;-1.60;76.30
81136;DHT22;70622;50.886;3.890;2024-01-10T10:43:29;-1.50;75.70
81136;DHT22;70622;50.886;3.890;2024-01-10T10:45:59;-1.40;75.20
81136;DHT22;70622;50.886;3.890;2024-01-10T10:48:25;-1.40;74.10
81136;DHT22;70622;50.886;3.890;2024-01-10T10:50:56;-1.30;73.90
81136;DHT22;70622;50.886;3.890;2024-01-10T10:53:25;-1.20;72.80
81136;DHT22;70622;50.886;3.890;2024-01-10T10:55:50;-1.20;73.70
81136;DHT22;70622;50.886;3.890;2024-01-10T10:58:17;-1.20;74.50
81136;DHT22;70622;50.886;3.890;2024-01-10T11:00:42;-1.00;73.80
81136;DHT22;70622;50.886;3.890;2024-01-10T11:03:10;-0.80;72.20
81136;DHT22;70622;50.886;3.890;2024-01-10T11:05:36;-0.90;72.40
81136;DHT22;70622;50.886;3.890;2024-01-10T11:08:05;-0.90;71.00
81136;DHT22;70622;50.886;3.890;2024-01-10T11:10:34;-0.90;71.20
81136;DHT22;70622;50.886;3.890;2024-01-10T11:15:52;-1.00;72.60
81136;DHT22;70622;50.886;3.890;2024-01-10T11:35:19;-0.40;71.60
81136;DHT22;70622;50.886;3.890;2024-01-10T11:38:27;-0.50;69.20
81136;DHT22;70622;50.886;3.890;2024-01-10T11:44:47;-0.20;69.50
81136;DHT22;70622;50.886;3.890;2024-01-10T11:47:15;0.00;67.40
81136;DHT22;70622;50.886;3.890;2024-01-10T11:49:54;-0.20;67.90
81136;DHT22;70622;50.886;3.890;2024-01-10T11:58:45;0.10;67.70
81136;DHT22;70622;50.886;3.890;2024-01-10T12:01:23;0.00;67.20
81136;DHT22;70622;50.886;3.890;2024-01-10T12:03:50;0.00;67.50
81136;DHT22;70622;50.886;3.890;2024-01-10T12:06:16;0.00;67.90
81136;DHT22;70622;50.886;3.890;2024-01-10T12:19:36;0.00;67.70
81136;DHT22;70622;50.886;3.890;2024-01-10T12:22:09;0.10;67.50
81136;DHT22;70622;50.886;3.890;2024-01-10T12:24:54;0.20;67.50
81136;DHT22;70622;50.886;3.890;2024-01-10T12:30:26;0.20;66.90
81136;DHT22;70622;50.886;3.890;2024-01-10T12:32:52;0.30;66.50
81136;DHT22;70622;50.886;3.890;2024-01-10T12:35:18;0.30;66.30
81136;DHT22;70622;50.886;3.890;2024-01-10T12:37:54;0.20;66.60
81136;DHT22;70622;50.886;3.890;2024-01-10T12:40:24;0.30;66.40
81136;DHT22;70622;50.886;3.890;2024-01-10T12:43:02;0.30;67.70
81136;DHT22;70622;50.886;3.890;2024-01-10T12:53:17;0.50;65.80
81136;DHT22;70622;50.886;3.890;2024-01-10T12:55:46;0.50;64.90
81136;DHT22;70622;50.886;3.890;2024-01-10T12:58:35;0.40;65.20
81136;DHT22;70622;50.886;3.890;2024-01-10T13:01:28;0.40;65.80
81136;DHT22;70622;50.886;3.890;2024-01-10T13:03:53;0.30;66.00
81136;DHT22;70622;50.886;3.890;2024-01-10T13:06:59;0.30;66.00
81136;DHT22;70622;50.886;3.890;2024-01-10T13:09:47;0.30;66.70
81136;DHT22;70622;50.886;3.890;2024-01-10T13:12:35;0.30;66.70
81136;DHT22;70622;50.886;3.890;2024-01-10T13:15:41;0.40;66.50
81136;DHT22;70622;50.886;3.890;2024-01-10T13:18:27;0.40;65.90
81136;DHT22;70622;50.886;3.890;2024-01-10T13:21:21;0.40;66.00
81136;DHT22;70622;50.886;3.890;2024-01-10T13:24:16;0.50;66.20
81136;DHT22;70622;50.886;3.890;2024-01-10T13:27:02;0.60;65.40
81136;DHT22;70622;50.886;3.890;2024-01-10T13:30:07;0.50;65.50
81136;DHT22;70622;50.886;3.890;2024-01-10T13:33:12;0.60;65.00
81136;DHT22;70622;50.886;3.890;2024-01-10T13:35:44;0.70;65.20
81136;DHT22;70622;50.886;3.890;2024-01-10T13:38:39;0.80;64.80
81136;DHT22;70622;50.886;3.890;2024-01-10T13:41:04;0.80;63.90
81136;DHT22;70622;50.886;3.890;2024-01-10T13:43:33;0.80;64.00
81136;DHT22;70622;50.886;3.890;2024-01-10T13:45:59;0.80;64.20
81136;DHT22;70622;50.886;3.890;2024-01-10T13:48:26;0.90;64.20
81136;DHT22;70622;50.886;3.890;2024-01-10T13:51:12;0.80;64.40
81136;DHT22;70622;50.886;3.890;2024-01-10T13:53:40;0.90;64.00
81136;DHT22;70622;50.886;3.890;2024-01-10T13:56:06;0.80;63.80
81136;DHT22;70622;50.886;3.890;2024-01-10T13:58:31;0.90;63.90
81136;DHT22;70622;50.886;3.890;2024-01-10T14:00:58;0.90;63.70
81136;DHT22;70622;50.886;3.890;2024-01-10T14:03:23;1.10;63.70
81136;DHT22;70622;50.886;3.890;2024-01-10T14:05:49;1.10;63.50
81136;DHT22;70622;50.886;3.890;2024-01-10T14:08:15;1.10;62.90
81136;DHT22;70622;50.886;3.890;2024-01-10T14:10:41;1.10;61.90
81136;DHT22;70622;50.886;3.890;2024-01-10T14:13:07;1.00;61.30
81136;DHT22;70622;50.886;3.890;2024-01-10T14:15:32;0.90;62.10
81136;DHT22;70622;50.886;3.890;2024-01-10T14:17:58;1.00;62.70
81136;DHT22;70622;50.886;3.890;2024-01-10T14:20:24;1.00;62.20
81136;DHT22;70622;50.886;3.890;2024-01-10T14:22:49;1.00;61.90
81136;DHT22;70622;50.886;3.890;2024-01-10T14:25:18;0.90;61.80
81136;DHT22;70622;50.886;3.890;2024-01-10T14:27:44;0.80;62.10
81136;DHT22;70622;50.886;3.890;2024-01-10T14:30:10;0.90;62.40
81136;DHT22;70622;50.886;3.890;2024-01-10T14:32:36;0.90;62.50
81136;DHT22;70622;50.886;3.890;2024-01-10T14:35:08;0.90;62.70
81136;DHT22;70622;50.886;3.890;2024-01-10T14:37:36;1.00;62.40
81136;DHT22;70622;50.886;3.890;2024-01-10T14:40:03;1.00;62.50
81136;DHT22;70622;50.886;3.890;2024-01-10T14:42:49;1.10;62.40
81136;DHT22;70622;50.886;3.890;2024-01-10T14:45:15;1.00;62.10
81136;DHT22;70622;50.886;3.890;2024-01-10T14:47:45;1.10;62.30
81136;DHT22;70622;50.886;3.890;2024-01-10T14:50:11;1.10;62.20
81136;DHT22;70622;50.886;3.890;2024-01-10T14:52:39;1.10;62.20
81136;DHT22;70622;50.886;3.890;2024-01-10T14:55:05;1.10;62.40
81136;DHT22;70622;50.886;3.890;2024-01-10T14:57:34;1.00;62.30
81136;DHT22;70622;50.886;3.890;2024-01-10T14:59:59;1.00;62.60
81136;DHT22;70622;50.886;3.890;2024-01-10T15:02:25;0.90;63.10
81136;DHT22;70622;50.886;3.890;2024-01-10T15:04:50;0.90;63.10
81136;DHT22;70622;50.886;3.890;2024-01-10T15:07:16;1.00;62.90
81136;DHT22;70622;50.886;3.890;2024-01-10T15:09:42;0.90;63.20
81136;DHT22;70622;50.886;3.890;2024-01-10T15:12:08;0.80;63.50
81136;DHT22;70622;50.886;3.890;2024-01-10T15:14:34;0.80;64.10
81136;DHT22;70622;50.886;3.890;2024-01-10T15:17:01;0.80;64.10
81136;DHT22;70622;50.886;3.890;2024-01-10T15:19:30;0.70;64.40
81136;DHT22;70622;50.886;3.890;2024-01-10T15:21:55;0.70;64.40
81136;DHT22;70622;50.886;3.890;2024-01-10T15:24:21;0.70;64.40
81136;DHT22;70622;50.886;3.890;2024-01-10T15:26:46;0.70;64.60
81136;DHT22;70622;50.886;3.890;2024-01-10T15:29:12;0.70;64.50
81136;DHT22;70622;50.886;3.890;2024-01-10T15:31:37;0.80;64.30
81136;DHT22;70622;50.886;3.890;2024-01-10T15:34:03;0.80;64.80
81136;DHT22;70622;50.886;3.890;2024-01-10T15:36:28;0.60;65.30
81136;DHT22;70622;50.886;3.890;2024-01-10T15:38:54;0.50;65.90
81136;DHT22;70622;50.886;3.890;2024-01-10T15:41:20;0.50;66.40
81136;DHT22;70622;50.886;3.890;2024-01-10T15:43:45;0.40;66.80
81136;DHT22;70622;50.886;3.890;2024-01-10T15:46:17;0.40;67.40
81136;DHT22;70622;50.886;3.890;2024-01-10T15:48:43;0.40;67.20
81136;DHT22;70622;50.886;3.890;2024-01-10T15:51:09;0.40;67.10
81136;DHT22;70622;50.886;3.890;2024-01-10T15:53:34;0.40;67.30
81136;DHT22;70622;50.886;3.890;2024-01-10T15:56:01;0.30;67.90
81136;DHT22;70622;50.886;3.890;2024-01-10T15:58:28;0.20;68.40
81136;DHT22;70622;50.886;3.890;2024-01-10T16:00:53;0.10;68.90
81136;DHT22;70622;50.886;3.890;2024-01-10T16:03:19;0.20;68.80
81136;DHT22;70622;50.886;3.890;2024-01-10T16:05:44;0.20;68.40
81136;DHT22;70622;50.886;3.890;2024-01-10T16:08:10;0.20;68.70
81136;DHT22;70622;50.886;3.890;2024-01-10T16:10:35;0.20;68.90
81136;DHT22;70622;50.886;3.890;2024-01-10T16:13:01;0.20;69.10
81136;DHT22;70622;50.886;3.890;2024-01-10T16:15:28;0.10;68.90
81136;DHT22;70622;50.886;3.890;2024-01-10T16:17:53;0.20;69.20
81136;DHT22;70622;50.886;3.890;2024-01-10T16:20:19;0.30;68.90
81136;DHT22;70622;50.886;3.890;2024-01-10T16:22:45;0.40;69.00
81136;DHT22;70622;50.886;3.890;2024-01-10T16:25:10;0.50;68.90
81136;DHT22;70622;50.886;3.890;2024-01-10T16:27:56;0.60;68.40
81136;DHT22;70622;50.886;3.890;2024-01-10T16:30:24;0.80;67.90
81136;DHT22;70622;50.886;3.890;2024-01-10T16:32:53;0.90;67.10
81136;DHT22;70622;50.886;3.890;2024-01-10T16:35:41;1.00;67.00
81136;DHT22;70622;50.886;3.890;2024-01-10T16:38:07;1.10;67.20
81136;DHT22;70622;50.886;3.890;2024-01-10T16:40:32;1.20;67.10
81136;DHT22;70622;50.886;3.890;2024-01-10T16:42:58;1.20;67.30
81136;DHT22;70622;50.886;3.890;2024-01-10T16:45:27;1.20;67.40
81136;DHT22;70622;50.886;3.890;2024-01-10T16:48:07;1.30;67.30
81136;DHT22;70622;50.886;3.890;2024-01-10T16:50:34;1.40;67.20
81136;DHT22;70622;50.886;3.890;2024-01-10T16:53:05;1.40;66.70
81136;DHT22;70622;50.886;3.890;2024-01-10T16:55:31;1.40;67.00
81136;DHT22;70622;50.886;3.890;2024-01-10T16:57:59;1.30;67.30
81136;DHT22;70622;50.886;3.890;2024-01-10T17:00:25;1.30;67.30
81136;DHT22;70622;50.886;3.890;2024-01-10T17:02:51;1.20;68.20
81136;DHT22;70622;50.886;3.890;2024-01-10T17:05:19;1.10;68.80
81136;DHT22;70622;50.886;3.890;2024-01-10T17:07:51;0.90;68.90
81136;DHT22;70622;50.886;3.890;2024-01-10T17:10:39;0.80;69.80
81136;DHT22;70622;50.886;3.890;2024-01-10T17:13:05;0.60;70.60
81136;DHT22;70622;50.886;3.890;2024-01-10T17:15:30;0.50;71.20
81136;DHT22;70622;50.886;3.890;2024-01-10T17:17:56;0.50;71.70
81136;DHT22;70622;50.886;3.890;2024-01-10T17:20:22;0.40;71.90
81136;DHT22;70622;50.886;3.890;2024-01-10T17:22:52;0.50;71.90
81136;DHT22;70622;50.886;3.890;2024-01-10T17:25:21;0.40;71.80
81136;DHT22;70622;50.886;3.890;2024-01-10T17:28:06;0.40;72.20
81136;DHT22;70622;50.886;3.890;2024-01-10T17:30:32;0.20;72.60
81136;DHT22;70622;50.886;3.890;2024-01-10T17:33:00;0.10;73.30
81136;DHT22;70622;50.886;3.890;2024-01-10T17:35:28;0.00;73.50
81136;DHT22;70622;50.886;3.890;2024-01-10T17:37:53;0.00;73.60
81136;DHT22;70622;50.886;3.890;2024-01-10T17:40:19;-0.10;73.00
81136;DHT22;70622;50.886;3.890;2024-01-10T17:42:44;-0.10;73.30
81136;DHT22;70622;50.886;3.890;2024-01-10T17:45:13;-0.20;73.60
81136;DHT22;70622;50.886;3.890;2024-01-10T17:47:39;-0.20;73.30
81136;DHT22;70622;50.886;3.890;2024-01-10T17:50:07;-0.20;73.30
81136;DHT22;70622;50.886;3.890;2024-01-10T17:52:36;-0.30;73.10
81136;DHT22;70622;50.886;3.890;2024-01-10T17:55:05;-0.30;73.30
81136;DHT22;70622;50.886;3.890;2024-01-10T17:57:34;-0.40;73.80
81136;DHT22;70622;50.886;3.890;2024-01-10T18:00:06;-0.40;74.10
81136;DHT22;70622;50.886;3.890;2024-01-10T18:02:35;-0.50;74.00
81136;DHT22;70622;50.886;3.890;2024-01-10T18:05:01;-0.60;74.80
81136;DHT22;70622;50.886;3.890;2024-01-10T18:07:30;-0.50;75.50
81136;DHT22;70622;50.886;3.890;2024-01-10T18:09:59;-0.50;75.00
81136;DHT22;70622;50.886;3.890;2024-01-10T18:12:34;-0.50;75.00